sensor_id;sensor_type;location;lat;lon;timestamp;temperature;humidity
16038;DHT22;8123;50.906;6.172;2022-11-11T00:00:36;10.20;99.90
16038;DHT22;8123;50.906;6.172;2022-11-11T00:03:03;10.10;99.90
16038;DHT22;8123;50.906;6.172;2022-11-11T00:05:29;10.10;99.90
16038;DHT22;8123;50.906;6.172;2022-11-11T00:07:57;10.10;99.90
16038;DHT22;8123;50.906;6.172;2022-11-11T00:10:28;10.10;99.90
16038;DHT22;8123;50.906;6.172;2022-11-11T00:12:58;10.10;99.90
16038;DHT22;8123;50.906;6.172;2022-11-11T00:15:23;10.30;99.90
16038;DHT22;8123;50.906;6.172;2022-11-11T00:17:49;10.20;99.90
16038;DHT22;8123;50.906;6.172;2022-11-11T00:20:33;10.20;99.90
16038;DHT22;8123;50.906;6.172;2022-11-11T00:23:22;10.30;99.90
16038;DHT22;8123;50.906;6.172;2022-11-11T00:26:08;10.20;99.90
16038;DHT22;8123;50.906;6.172;2022-11-11T00:28:33;10.20;99.90
16038;DHT22;8123;50.906;6.172;2022-11-11T00:31:04;10.20;99.90
16038;DHT22;8123;50.906;6.172;2022-11-11T00:33:30;10.10;99.90
16038;DHT22;8123;50.906;6.172;2022-11-11T00:35:55;10.00;99.90
16038;DHT22;8123;50.906;6.172;2022-11-11T00:38:21;9.80;99.90
16038;DHT22;8123;50.906;6.172;2022-11-11T00:41:06;9.70;99.90
16038;DHT22;8123;50.906;6.172;2022-11-11T00:43:32;9.70;99.90
16038;DHT22;8123;50.906;6.172;2022-11-11T00:45:57;9.60;99.90
16038;DHT22;8123;50.906;6.172;2022-11-11T00:48:43;9.60;99.90
16038;DHT22;8123;50.906;6.172;2022-11-11T00:51:28;9.70;99.90
16038;DHT22;8123;50.906;6.172;2022-11-11T00:53:53;9.50;99.90
16038;DHT22;8123;50.906;6.172;2022-11-11T00:56:19;9.40;99.90
16038;DHT22;8123;50.906;6.172;2022-11-11T00:58:45;9.50;99.90
16038;DHT22;8123;50.906;6.172;2022-11-11T01:01:11;9.90;99.90
16038;DHT22;8123;50.906;6.172;2022-11-11T01:03:37;9.50;99.90
16038;DHT22;8123;50.906;6.172;2022-11-11T01:06:03;9.90;99.90
16038;DHT22;8123;50.906;6.172;2022-11-11T01:08:29;9.60;99.90
16038;DHT22;8123;50.906;6.172;2022-11-11T01:10:55;9.70;99.90
16038;DHT22;8123;50.906;6.172;2022-11-11T01:13:24;9.80;99.90
16038;DHT22;8123;50.906;6.172;2022-11-11T01:15:52;9.90;99.90
16038;DHT22;8123;50.906;6.172;2022-11-11T01:18:20;10.30;99.90
16038;DHT22;8123;50.906;6.172;2022-11-11T01:20:47;9.90;99.90
16038;DHT22;8123;50.906;6.172;2022-11-11T01:23:13;9.90;99.90
16038;DHT22;8123;50.906;6.172;2022-11-11T01:25:41;9.90;99.90
16038;DHT22;8123;50.906;6.172;2022-11-11T01:28:08;9.90;99.90
16038;DHT22;8123;50.906;6.172;2022-11-11T01:30:35;10.00;99.90
16038;DHT22;8123;50.906;6.172;2022-11-11T01:33:01;9.80;99.90
16038;DHT22;8123;50.906;6.172;2022-11-11T01:35:27;10.10;99.90
16038;DHT22;8123;50.906;6.172;2022-11-11T01:37:53;9.80;99.90
16038;DHT22;8123;50.906;6.172;2022-11-11T01:40:19;9.80;99.90
16038;DHT22;8123;50.906;6.172;2022-11-11T01:42:49;9.80;99.90
16038;DHT22;8123;50.906;6.172;2022-11-11T01:45:50;9.80;99.90
16038;DHT22;8123;50.906;6.172;2022-11-11T01:48:40;9.80;99.90
16038;DHT22;8123;50.906;6.172;2022-11-11T01:51:37;9.90;99.90
16038;DHT22;8123;50.906;6.172;2022-11-11T01:54:07;9.90;99.90
16038;DHT22;8123;50.906;6.172;2022-11-11T01:56:37;9.90;99.90
16038;DHT22;8123;50.906;6.172;2022-11-11T01:59:10;9.90;99.90
16038;DHT22;8123;50.906;6.172;2022-11-11T02:01:37;9.80;99.90
16038;DHT22;8123;50.906;6.172;2022-11-11T02:04:05;9.80;99.90
16038;DHT22;8123;50.906;6.172;2022-11-11T02:06:53;10.00;99.90
16038;DHT22;8123;50.906;6.172;2022-11-11T02:09:21;9.80;99.90
16038;DHT22;8123;50.906;6.172;2022-11-11T02:11:47;9.70;99.90
16038;DHT22;8123;50.906;6.172;2022-11-11T02:14:37;9.70;99.90
16038;DHT22;8123;50.906;6.172;2022-11-11T02:17:09;9.60;99.90
16038;DHT22;8123;50.906;6.172;2022-11-11T02:19:57;9.40;99.90
16038;DHT22;8123;50.906;6.172;2022-11-11T02:22:51;9.20;99.90
16038;DHT22;8123;50.906;6.172;2022-11-11T02:25:22;9.00;99.90
16038;DHT22;8123;50.906;6.172;2022-11-11T02:27:50;8.90;99.90
16038;DHT22;8123;50.906;6.172;2022-11-11T02:30:19;8.70;99.90
16038;DHT22;8123;50.906;6.172;2022-11-11T02:32:47;8.60;99.90
16038;DHT22;8123;50.906;6.172;2022-11-11T02:35:19;8.50;99.90
16038;DHT22;8123;50.906;6.172;2022-11-11T02:37:48;8.40;99.90
16038;DHT22;8123;50.906;6.172;2022-11-11T02:42:46;8.30;99.90
16038;DHT22;8123;50.906;6.172;2022-11-11T02:45:12;8.30;99.90
16038;DHT22;8123;50.906;6.172;2022-11-11T02:47:37;8.30;99.90
16038;DHT22;8123;50.906;6.172;2022-11-11T02:50:04;8.30;99.90
16038;DHT22;8123;50.906;6.172;2022-11-11T02:52:29;8.40;99.90
16038;DHT22;8123;50.906;6.172;2022-11-11T02:54:55;8.60;99.90
16038;DHT22;8123;50.906;6.172;2022-11-11T02:57:21;8.70;99.90
16038;DHT22;8123;50.906;6.172;2022-11-11T02:59:47;8.50;99.90
16038;DHT22;8123;50.906;6.172;2022-11-11T03:02:13;8.60;99.90
16038;DHT22;8123;50.906;6.172;2022-11-11T03:04:38;8.70;99.90
16038;DHT22;8123;50.906;6.172;2022-11-11T03:07:05;8.80;99.90
16038;DHT22;8123;50.906;6.172;2022-11-11T03:09:31;8.90;99.90
16038;DHT22;8123;50.906;6.172;2022-11-11T03:11:56;9.00;99.90
16038;DHT22;8123;50.906;6.172;2022-11-11T03:14:22;9.10;99.90
16038;DHT22;8123;50.906;6.172;2022-11-11T03:16:49;9.10;99.90
16038;DHT22;8123;50.906;6.172;2022-11-11T03:19:34;9.30;99.90
16038;DHT22;8123;50.906;6.172;2022-11-11T03:21:59;9.20;99.90
16038;DHT22;8123;50.906;6.172;2022-11-11T03:24:26;9.40;99.90
16038;DHT22;8123;50.906;6.172;2022-11-11T03:27:14;9.20;99.90
16038;DHT22;8123;50.906;6.172;2022-11-11T03:29:40;9.20;99.90
16038;DHT22;8123;50.906;6.172;2022-11-11T03:32:07;9.10;99.90
16038;DHT22;8123;50.906;6.172;2022-11-11T03:34:33;9.20;99.90
16038;DHT22;8123;50.906;6.172;2022-11-11T03:36:59;9.10;99.90
16038;DHT22;8123;50.906;6.172;2022-11-11T03:39:42;9.10;99.90
16038;DHT22;8123;50.906;6.172;2022-11-11T03:42:08;9.30;99.90
16038;DHT22;8123;50.906;6.172;2022-11-11T03:44:34;9.20;99.90
16038;DHT22;8123;50.906;6.172;2022-11-11T03:46:59;9.30;99.90
16038;DHT22;8123;50.906;6.172;2022-11-11T03:49:25;9.30;99.90
16038;DHT22;8123;50.906;6.172;2022-11-11T03:51:50;9.50;99.90
16038;DHT22;8123;50.906;6.172;2022-11-11T03:54:16;9.40;99.90
16038;DHT22;8123;50.906;6.172;2022-11-11T03:56:42;9.60;99.90
16038;DHT22;8123;50.906;6.172;2022-11-11T03:59:07;9.30;99.90
16038;DHT22;8123;50.906;6.172;2022-11-11T04:01:33;9.40;99.90
16038;DHT22;8123;50.906;6.172;2022-11-11T04:04:19;9.70;99.90
16038;DHT22;8123;50.906;6.172;2022-11-11T04:07:03;9.40;99.90
16038;DHT22;8123;50.906;6.172;2022-11-11T04:09:47;9.40;99.90
16038;DHT22;8123;50.906;6.172;2022-11-11T04:12:33;9.50;99.90
16038;DHT22;8123;50.906;6.172;2022-11-11T04:15:19;9.50;99.90
16038;DHT22;8123;50.906;6.172;2022-11-11T04:18:03;9.50;99.90
16038;DHT22;8123;50.906;6.172;2022-11-11T04:20:29;9.50;99.90
16038;DHT22;8123;50.906;6.172;2022-11-11T04:23:13;9.60;99.90
16038;DHT22;8123;50.906;6.172;2022-11-11T04:25:39;9.40;99.90
16038;DHT22;8123;50.906;6.172;2022-11-11T04:28:13;9.50;99.90
16038;DHT22;8123;50.906;6.172;2022-11-11T04:30:57;9.50;99.90
16038;DHT22;8123;50.906;6.172;2022-11-11T04:33:23;9.50;99.90
16038;DHT22;8123;50.906;6.172;2022-11-11T04:35:49;9.70;99.90
16038;DHT22;8123;50.906;6.172;2022-11-11T04:38:15;9.80;99.90
16038;DHT22;8123;50.906;6.172;2022-11-11T04:40:59;9.50;99.90
16038;DHT22;8123;50.906;6.172;2022-11-11T04:43:28;9.70;99.90
16038;DHT22;8123;50.906;6.172;2022-11-11T04:46:00;9.70;99.90
16038;DHT22;8123;50.906;6.172;2022-11-11T04:48:26;9.60;99.90
16038;DHT22;8123;50.906;6.172;2022-11-11T04:50:52;9.70;99.90
16038;DHT22;8123;50.906;6.172;2022-11-11T04:53:18;9.90;99.90
16038;DHT22;8123;50.906;6.172;2022-11-11T04:55:44;9.70;99.90
16038;DHT22;8123;50.906;6.172;2022-11-11T04:58:31;9.70;99.90
16038;DHT22;8123;50.906;6.172;2022-11-11T05:00:57;9.70;99.90
16038;DHT22;8123;50.906;6.172;2022-11-11T05:03:23;9.70;99.90
16038;DHT22;8123;50.906;6.172;2022-11-11T05:05:53;9.80;99.90
16038;DHT22;8123;50.906;6.172;2022-11-11T05:08:41;9.60;99.90
16038;DHT22;8123;50.906;6.172;2022-11-11T05:13:52;9.40;99.90
16038;DHT22;8123;50.906;6.172;2022-11-11T05:19:31;9.20;99.90
16038;DHT22;8123;50.906;6.172;2022-11-11T05:24:51;9.20;99.90
16038;DHT22;8123;50.906;6.172;2022-11-11T05:27:36;9.10;99.90
16038;DHT22;8123;50.906;6.172;2022-11-11T05:30:02;9.20;99.90
16038;DHT22;8123;50.906;6.172;2022-11-11T05:32:28;9.30;99.90
16038;DHT22;8123;50.906;6.172;2022-11-11T05:34:55;9.40;99.90
16038;DHT22;8123;50.906;6.172;2022-11-11T05:37:21;9.50;99.90
16038;DHT22;8123;50.906;6.172;2022-11-11T05:39:46;9.70;99.90
16038;DHT22;8123;50.906;6.172;2022-11-11T05:42:12;9.70;99.90
16038;DHT22;8123;50.906;6.172;2022-11-11T05:44:38;9.80;99.90
16038;DHT22;8123;50.906;6.172;2022-11-11T05:47:04;9.90;99.90
16038;DHT22;8123;50.906;6.172;2022-11-11T05:49:29;9.90;99.90
16038;DHT22;8123;50.906;6.172;2022-11-11T05:51:55;9.80;99.90
16038;DHT22;8123;50.906;6.172;2022-11-11T05:54:21;9.80;99.90
16038;DHT22;8123;50.906;6.172;2022-11-11T05:56:47;9.80;99.90
16038;DHT22;8123;50.906;6.172;2022-11-11T05:59:13;9.80;99.90
16038;DHT22;8123;50.906;6.172;2022-11-11T06:01:39;10.10;99.90
16038;DHT22;8123;50.906;6.172;2022-11-11T06:04:05;9.80;99.90
16038;DHT22;8123;50.906;6.172;2022-11-11T06:06:33;9.80;99.90
16038;DHT22;8123;50.906;6.172;2022-11-11T06:08:59;9.80;99.90
16038;DHT22;8123;50.906;6.172;2022-11-11T06:11:24;9.80;99.90
16038;DHT22;8123;50.906;6.172;2022-11-11T06:13:52;9.80;99.90
16038;DHT22;8123;50.906;6.172;2022-11-11T06:16:18;9.80;99.90
16038;DHT22;8123;50.906;6.172;2022-11-11T06:18:43;9.90;99.90
16038;DHT22;8123;50.906;6.172;2022-11-11T06:21:09;9.80;99.90
16038;DHT22;8123;50.906;6.172;2022-11-11T06:23:35;9.80;99.90
16038;DHT22;8123;50.906;6.172;2022-11-11T06:26:00;9.90;99.90
16038;DHT22;8123;50.906;6.172;2022-11-11T06:31:06;9.80;99.90
16038;DHT22;8123;50.906;6.172;2022-11-11T06:33:33;9.70;99.90
16038;DHT22;8123;50.906;6.172;2022-11-11T06:36:03;9.60;99.90
16038;DHT22;8123;50.906;6.172;2022-11-11T06:38:29;9.40;99.90
16038;DHT22;8123;50.906;6.172;2022-11-11T06:40:55;9.40;99.90
16038;DHT22;8123;50.906;6.172;2022-11-11T06:43:20;9.20;99.90
16038;DHT22;8123;50.906;6.172;2022-11-11T06:45:50;9.10;99.90
16038;DHT22;8123;50.906;6.172;2022-11-11T06:48:15;9.10;99.90
16038;DHT22;8123;50.906;6.172;2022-11-11T06:50:41;9.00;99.90
16038;DHT22;8123;50.906;6.172;2022-11-11T06:53:09;8.90;99.90
16038;DHT22;8123;50.906;6.172;2022-11-11T06:55:35;9.00;99.90
16038;DHT22;8123;50.906;6.172;2022-11-11T06:58:09;8.90;99.90
16038;DHT22;8123;50.906;6.172;2022-11-11T07:00:36;9.00;99.90
16038;DHT22;8123;50.906;6.172;2022-11-11T07:03:02;8.90;99.90
16038;DHT22;8123;50.906;6.172;2022-11-11T07:05:28;8.90;99.90
16038;DHT22;8123;50.906;6.172;2022-11-11T07:07:54;9.20;99.90
16038;DHT22;8123;50.906;6.172;2022-11-11T07:10:20;9.00;99.90
16038;DHT22;8123;50.906;6.172;2022-11-11T07:12:46;9.20;99.90
16038;DHT22;8123;50.906;6.172;2022-11-11T07:15:11;9.00;99.90
16038;DHT22;8123;50.906;6.172;2022-11-11T07:17:37;9.10;99.90
16038;DHT22;8123;50.906;6.172;2022-11-11T07:20:03;9.00;99.90
16038;DHT22;8123;50.906;6.172;2022-11-11T07:22:29;9.00;99.90
16038;DHT22;8123;50.906;6.172;2022-11-11T07:24:55;9.00;99.90
16038;DHT22;8123;50.906;6.172;2022-11-11T07:27:20;8.90;99.90
16038;DHT22;8123;50.906;6.172;2022-11-11T07:29:46;8.90;99.90
16038;DHT22;8123;50.906;6.172;2022-11-11T07:32:13;9.00;99.90
16038;DHT22;8123;50.906;6.172;2022-11-11T07:34:39;9.00;99.90
16038;DHT22;8123;50.906;6.172;2022-11-11T07:37:05;9.00;99.90
16038;DHT22;8123;50.906;6.172;2022-11-11T07:39:30;9.00;99.90
16038;DHT22;8123;50.906;6.172;2022-11-11T07:41:59;9.00;99.90
16038;DHT22;8123;50.906;6.172;2022-11-11T07:44:25;9.10;99.90
16038;DHT22;8123;50.906;6.172;2022-11-11T07:46:51;9.10;99.90
16038;DHT22;8123;50.906;6.172;2022-11-11T07:49:17;9.10;99.90
16038;DHT22;8123;50.906;6.172;2022-11-11T07:51:42;9.30;99.90
16038;DHT22;8123;50.906;6.172;2022-11-11T07:54:08;9.30;99.90
16038;DHT22;8123;50.906;6.172;2022-11-11T07:56:34;9.60;99.90
16038;DHT22;8123;50.906;6.172;2022-11-11T07:58:59;9.50;99.90
16038;DHT22;8123;50.906;6.172;2022-11-11T08:01:25;9.60;99.90
16038;DHT22;8123;50.906;6.172;2022-11-11T08:03:51;9.70;99.90
16038;DHT22;8123;50.906;6.172;2022-11-11T08:06:18;9.80;99.90
16038;DHT22;8123;50.906;6.172;2022-11-11T08:08:44;9.80;99.90
16038;DHT22;8123;50.906;6.172;2022-11-11T08:11:11;9.90;99.90
16038;DHT22;8123;50.906;6.172;2022-11-11T08:13:37;9.90;99.90
16038;DHT22;8123;50.906;6.172;2022-11-11T08:16:12;10.00;99.90
16038;DHT22;8123;50.906;6.172;2022-11-11T08:18:38;10.00;99.90
16038;DHT22;8123;50.906;6.172;2022-11-11T08:21:04;10.10;99.90
16038;DHT22;8123;50.906;6.172;2022-11-11T08:23:30;10.20;99.90
16038;DHT22;8123;50.906;6.172;2022-11-11T08:26:04;10.20;99.90
16038;DHT22;8123;50.906;6.172;2022-11-11T08:28:32;10.30;99.90
16038;DHT22;8123;50.906;6.172;2022-11-11T08:30:59;10.40;99.90
16038;DHT22;8123;50.906;6.172;2022-11-11T08:33:27;10.40;99.90
16038;DHT22;8123;50.906;6.172;2022-11-11T08:35:54;10.50;99.90
16038;DHT22;8123;50.906;6.172;2022-11-11T08:38:22;10.50;99.90
16038;DHT22;8123;50.906;6.172;2022-11-11T08:40:49;10.60;99.90
16038;DHT22;8123;50.906;6.172;2022-11-11T08:43:15;10.70;99.90
16038;DHT22;8123;50.906;6.172;2022-11-11T08:45:41;10.70;99.90
16038;DHT22;8123;50.906;6.172;2022-11-11T08:48:07;10.80;99.90
16038;DHT22;8123;50.906;6.172;2022-11-11T08:50:37;10.80;99.90
16038;DHT22;8123;50.906;6.172;2022-11-11T08:53:04;10.80;99.90
16038;DHT22;8123;50.906;6.172;2022-11-11T08:55:30;10.90;99.90
16038;DHT22;8123;50.906;6.172;2022-11-11T08:58:00;10.90;99.90
16038;DHT22;8123;50.906;6.172;2022-11-11T09:00:26;11.00;99.90
16038;DHT22;8123;50.906;6.172;2022-11-11T09:02:52;11.00;99.90
16038;DHT22;8123;50.906;6.172;2022-11-11T09:05:17;11.10;99.90
16038;DHT22;8123;50.906;6.172;2022-11-11T09:07:43;11.10;99.90
16038;DHT22;8123;50.906;6.172;2022-11-11T09:10:09;11.20;99.90
16038;DHT22;8123;50.906;6.172;2022-11-11T09:12:34;11.30;99.90
16038;DHT22;8123;50.906;6.172;2022-11-11T09:15:00;11.30;99.90
16038;DHT22;8123;50.906;6.172;2022-11-11T09:17:26;11.30;99.90
16038;DHT22;8123;50.906;6.172;2022-11-11T09:19:52;11.40;99.90
16038;DHT22;8123;50.906;6.172;2022-11-11T09:22:18;11.40;99.90
16038;DHT22;8123;50.906;6.172;2022-11-11T09:24:43;11.40;99.90
16038;DHT22;8123;50.906;6.172;2022-11-11T09:27:10;11.50;99.90
16038;DHT22;8123;50.906;6.172;2022-11-11T09:29:35;11.50;99.90
16038;DHT22;8123;50.906;6.172;2022-11-11T09:32:01;11.60;99.90
16038;DHT22;8123;50.906;6.172;2022-11-11T09:34:27;11.70;99.90
16038;DHT22;8123;50.906;6.172;2022-11-11T09:36:52;11.80;99.90
16038;DHT22;8123;50.906;6.172;2022-11-11T09:39:18;11.90;99.90
16038;DHT22;8123;50.906;6.172;2022-11-11T09:41:52;12.00;99.90
16038;DHT22;8123;50.906;6.172;2022-11-11T09:47:12;12.10;99.90
16038;DHT22;8123;50.906;6.172;2022-11-11T09:49:59;12.20;99.90
16038;DHT22;8123;50.906;6.172;2022-11-11T09:52:33;12.30;99.90
16038;DHT22;8123;50.906;6.172;2022-11-11T09:55:05;12.40;99.90
16038;DHT22;8123;50.906;6.172;2022-11-11T09:57:40;12.50;99.90
16038;DHT22;8123;50.906;6.172;2022-11-11T10:00:35;12.60;99.90
16038;DHT22;8123;50.906;6.172;2022-11-11T10:03:21;12.70;99.90
16038;DHT22;8123;50.906;6.172;2022-11-11T10:05:55;12.80;99.90
16038;DHT22;8123;50.906;6.172;2022-11-11T10:08:44;12.80;99.90
16038;DHT22;8123;50.906;6.172;2022-11-11T10:11:18;12.80;99.90
16038;DHT22;8123;50.906;6.172;2022-11-11T10:13:45;12.90;99.90
16038;DHT22;8123;50.906;6.172;2022-11-11T10:22:04;12.90;99.90
16038;DHT22;8123;50.906;6.172;2022-11-11T10:24:38;12.90;99.90
16038;DHT22;8123;50.906;6.172;2022-11-11T10:27:25;12.90;99.90
16038;DHT22;8123;50.906;6.172;2022-11-11T10:29:51;13.00;99.90
16038;DHT22;8123;50.906;6.172;2022-11-11T10:32:24;13.00;99.90
16038;DHT22;8123;50.906;6.172;2022-11-11T10:34:50;13.10;99.90
16038;DHT22;8123;50.906;6.172;2022-11-11T10:37:29;13.10;99.90
16038;DHT22;8123;50.906;6.172;2022-11-11T10:42:26;13.20;99.90
16038;DHT22;8123;50.906;6.172;2022-11-11T10:44:57;13.30;99.90
16038;DHT22;8123;50.906;6.172;2022-11-11T10:50:07;13.40;99.90
16038;DHT22;8123;50.906;6.172;2022-11-11T10:52:42;13.40;99.90
16038;DHT22;8123;50.906;6.172;2022-11-11T10:55:18;13.40;99.90
16038;DHT22;8123;50.906;6.172;2022-11-11T10:57:54;13.50;99.90
16038;DHT22;8123;50.906;6.172;2022-11-11T11:00:22;13.50;99.90
16038;DHT22;8123;50.906;6.172;2022-11-11T11:03:06;13.60;99.90
16038;DHT22;8123;50.906;6.172;2022-11-11T11:05:52;13.60;99.90
16038;DHT22;8123;50.906;6.172;2022-11-11T11:08:25;13.70;99.90
16038;DHT22;8123;50.906;6.172;2022-11-11T11:10:57;13.70;99.90
16038;DHT22;8123;50.906;6.172;2022-11-11T11:13:28;13.80;99.90
16038;DHT22;8123;50.906;6.172;2022-11-11T11:15:57;13.80;99.90
16038;DHT22;8123;50.906;6.172;2022-11-11T11:18:25;13.80;99.90
16038;DHT22;8123;50.906;6.172;2022-11-11T11:21:05;13.90;99.90
16038;DHT22;8123;50.906;6.172;2022-11-11T11:26:00;14.00;99.90
16038;DHT22;8123;50.906;6.172;2022-11-11T11:28:27;14.10;99.90
16038;DHT22;8123;50.906;6.172;2022-11-11T11:31:04;14.10;99.90
16038;DHT22;8123;50.906;6.172;2022-11-11T11:33:52;14.10;99.90
16038;DHT22;8123;50.906;6.172;2022-11-11T11:36:18;14.20;99.90
16038;DHT22;8123;50.906;6.172;2022-11-11T11:38:46;14.20;99.90
16038;DHT22;8123;50.906;6.172;2022-11-11T11:41:34;14.30;99.90
16038;DHT22;8123;50.906;6.172;2022-11-11T11:44:35;14.30;99.90
16038;DHT22;8123;50.906;6.172;2022-11-11T11:55:23;14.50;99.90
16038;DHT22;8123;50.906;6.172;2022-11-11T12:06:08;14.60;99.90
16038;DHT22;8123;50.906;6.172;2022-11-11T12:08:30;14.70;99.90
16038;DHT22;8123;50.906;6.172;2022-11-11T12:11:12;14.70;99.90
16038;DHT22;8123;50.906;6.172;2022-11-11T12:30:22;15.00;99.90
16038;DHT22;8123;50.906;6.172;2022-11-11T12:33:12;15.00;99.90
16038;DHT22;8123;50.906;6.172;2022-11-11T12:40:57;15.00;99.90
16038;DHT22;8123;50.906;6.172;2022-11-11T12:51:32;15.00;99.90
16038;DHT22;8123;50.906;6.172;2022-11-11T13:04:34;14.70;99.90
16038;DHT22;8123;50.906;6.172;2022-11-11T13:15:31;14.30;99.90
16038;DHT22;8123;50.906;6.172;2022-11-11T13:18:01;14.20;99.90
16038;DHT22;8123;50.906;6.172;2022-11-11T13:20:48;14.20;99.90
16038;DHT22;8123;50.906;6.172;2022-11-11T13:23:16;14.20;99.90
16038;DHT22;8123;50.906;6.172;2022-11-11T13:25:47;14.10;99.90
16038;DHT22;8123;50.906;6.172;2022-11-11T13:33:25;13.90;99.90
16038;DHT22;8123;50.906;6.172;2022-11-11T13:35:57;13.90;99.90
16038;DHT22;8123;50.906;6.172;2022-11-11T13:41:10;13.70;99.90
16038;DHT22;8123;50.906;6.172;2022-11-11T13:43:42;13.70;99.90
16038;DHT22;8123;50.906;6.172;2022-11-11T13:46:46;13.60;99.90
16038;DHT22;8123;50.906;6.172;2022-11-11T13:52:39;13.60;99.90
16038;DHT22;8123;50.906;6.172;2022-11-11T13:54:50;13.50;99.90
16038;DHT22;8123;50.906;6.172;2022-11-11T13:57:23;13.50;99.90
16038;DHT22;8123;50.906;6.172;2022-11-11T14:00:02;13.40;99.90
16038;DHT22;8123;50.906;6.172;2022-11-11T14:02:32;13.40;99.90
16038;DHT22;8123;50.906;6.172;2022-11-11T14:07:58;13.30;99.90
16038;DHT22;8123;50.906;6.172;2022-11-11T14:12:57;13.30;99.90
16038;DHT22;8123;50.906;6.172;2022-11-11T14:15:45;13.20;99.90
16038;DHT22;8123;50.906;6.172;2022-11-11T14:42:02;12.70;99.90
16038;DHT22;8123;50.906;6.172;2022-11-11T14:44:38;12.70;99.90
16038;DHT22;8123;50.906;6.172;2022-11-11T14:52:37;12.50;99.90
16038;DHT22;8123;50.906;6.172;2022-11-11T14:57:39;12.40;99.90
16038;DHT22;8123;50.906;6.172;2022-11-11T15:02:54;12.30;99.90
16038;DHT22;8123;50.906;6.172;2022-11-11T15:05:42;12.30;99.90
16038;DHT22;8123;50.906;6.172;2022-11-11T15:08:22;12.30;99.90
16038;DHT22;8123;50.906;6.172;2022-11-11T15:17:01;12.10;99.90
16038;DHT22;8123;50.906;6.172;2022-11-11T15:30:22;11.80;99.90
16038;DHT22;8123;50.906;6.172;2022-11-11T15:37:58;11.70;99.90
16038;DHT22;8123;50.906;6.172;2022-11-11T15:40:31;11.70;99.90
16038;DHT22;8123;50.906;6.172;2022-11-11T15:42:58;11.60;99.90
16038;DHT22;8123;50.906;6.172;2022-11-11T15:45:33;11.50;99.90
16038;DHT22;8123;50.906;6.172;2022-11-11T15:47:59;11.50;99.90
16038;DHT22;8123;50.906;6.172;2022-11-11T15:53:00;11.40;99.90
16038;DHT22;8123;50.906;6.172;2022-11-11T15:55:31;11.30;99.90
16038;DHT22;8123;50.906;6.172;2022-11-11T15:58:08;11.10;99.90
16038;DHT22;8123;50.906;6.172;2022-11-11T16:00:38;11.00;99.90
16038;DHT22;8123;50.906;6.172;2022-11-11T16:03:04;10.90;99.90
16038;DHT22;8123;50.906;6.172;2022-11-11T16:05:30;10.80;99.90
16038;DHT22;8123;50.906;6.172;2022-11-11T16:08:05;10.70;99.90
16038;DHT22;8123;50.906;6.172;2022-11-11T16:10:35;10.70;99.90
16038;DHT22;8123;50.906;6.172;2022-11-11T16:13:20;10.60;99.90
16038;DHT22;8123;50.906;6.172;2022-11-11T16:16:25;10.50;99.90
16038;DHT22;8123;50.906;6.172;2022-11-11T16:18:52;10.30;99.90
16038;DHT22;8123;50.906;6.172;2022-11-11T16:21:33;10.20;99.90
16038;DHT22;8123;50.906;6.172;2022-11-11T16:24:02;10.10;99.90
16038;DHT22;8123;50.906;6.172;2022-11-11T16:26:32;10.00;99.90
16038;DHT22;8123;50.906;6.172;2022-11-11T16:28:59;9.90;99.90
16038;DHT22;8123;50.906;6.172;2022-11-11T16:34:00;9.80;99.90
16038;DHT22;8123;50.906;6.172;2022-11-11T16:37:02;10.00;99.90
16038;DHT22;8123;50.906;6.172;2022-11-11T16:39:29;9.60;99.90
16038;DHT22;8123;50.906;6.172;2022-11-11T16:41:59;9.80;99.90
16038;DHT22;8123;50.906;6.172;2022-11-11T16:46:56;9.60;99.90
16038;DHT22;8123;50.906;6.172;2022-11-11T16:51:51;9.40;99.90
16038;DHT22;8123;50.906;6.172;2022-11-11T16:54:19;9.30;99.90
16038;DHT22;8123;50.906;6.172;2022-11-11T16:56:53;9.30;99.90
16038;DHT22;8123;50.906;6.172;2022-11-11T16:59:47;9.40;99.90
16038;DHT22;8123;50.906;6.172;2022-11-11T17:02:18;9.20;99.90
16038;DHT22;8123;50.906;6.172;2022-11-11T17:04:52;9.60;99.90
16038;DHT22;8123;50.906;6.172;2022-11-11T17:07:35;9.10;99.90
16038;DHT22;8123;50.906;6.172;2022-11-11T17:12:34;9.40;99.90
16038;DHT22;8123;50.906;6.172;2022-11-11T17:15:02;9.00;99.90
16038;DHT22;8123;50.906;6.172;2022-11-11T17:17:31;9.00;99.90
16038;DHT22;8123;50.906;6.172;2022-11-11T17:20:04;9.00;99.90
16038;DHT22;8123;50.906;6.172;2022-11-11T17:22:30;8.90;99.90
16038;DHT22;8123;50.906;6.172;2022-11-11T17:24:56;8.90;99.90
16038;DHT22;8123;50.906;6.172;2022-11-11T17:27:21;9.30;99.90
16038;DHT22;8123;50.906;6.172;2022-11-11T17:29:47;8.80;99.90
16038;DHT22;8123;50.906;6.172;2022-11-11T17:32:13;8.70;99.90
16038;DHT22;8123;50.906;6.172;2022-11-11T17:34:39;9.10;99.90
16038;DHT22;8123;50.906;6.172;2022-11-11T17:37:04;8.60;99.90
16038;DHT22;8123;50.906;6.172;2022-11-11T17:39:30;8.60;99.90
16038;DHT22;8123;50.906;6.172;2022-11-11T17:41:56;8.60;99.90
16038;DHT22;8123;50.906;6.172;2022-11-11T17:44:21;8.50;99.90
16038;DHT22;8123;50.906;6.172;2022-11-11T17:46:47;8.50;99.90
16038;DHT22;8123;50.906;6.172;2022-11-11T17:49:12;8.40;99.90
16038;DHT22;8123;50.906;6.172;2022-11-11T17:51:39;8.40;99.90
16038;DHT22;8123;50.906;6.172;2022-11-11T17:54:07;8.30;99.90
16038;DHT22;8123;50.906;6.172;2022-11-11T17:56:34;8.30;99.90
16038;DHT22;8123;50.906;6.172;2022-11-11T17:59:00;8.30;99.90
16038;DHT22;8123;50.906;6.172;2022-11-11T18:01:26;8.30;99.90
16038;DHT22;8123;50.906;6.172;2022-11-11T18:03:56;8.30;99.90
16038;DHT22;8123;50.906;6.172;2022-11-11T18:06:21;8.20;99.90
16038;DHT22;8123;50.906;6.172;2022-11-11T18:08:47;8.20;99.90
16038;DHT22;8123;50.906;6.172;2022-11-11T18:11:13;8.20;99.90
16038;DHT22;8123;50.906;6.172;2022-11-11T18:13:39;8.30;99.90
16038;DHT22;8123;50.906;6.172;2022-11-11T18:16:04;8.20;99.90
16038;DHT22;8123;50.906;6.172;2022-11-11T18:18:31;8.20;99.90
16038;DHT22;8123;50.906;6.172;2022-11-11T18:21:01;8.20;99.90
16038;DHT22;8123;50.906;6.172;2022-11-11T18:23:32;8.10;99.90
16038;DHT22;8123;50.906;6.172;2022-11-11T18:25:58;8.10;99.90
16038;DHT22;8123;50.906;6.172;2022-11-11T18:28:31;8.10;99.90
16038;DHT22;8123;50.906;6.172;2022-11-11T18:31:10;8.10;99.90
16038;DHT22;8123;50.906;6.172;2022-11-11T18:33:37;8.10;99.90
16038;DHT22;8123;50.906;6.172;2022-11-11T18:36:14;8.00;99.90
16038;DHT22;8123;50.906;6.172;2022-11-11T18:38:40;8.10;99.90
16038;DHT22;8123;50.906;6.172;2022-11-11T18:41:11;8.10;99.90
16038;DHT22;8123;50.906;6.172;2022-11-11T18:43:39;8.00;99.90
16038;DHT22;8123;50.906;6.172;2022-11-11T18:46:10;8.00;99.90
16038;DHT22;8123;50.906;6.172;2022-11-11T18:48:37;8.00;99.90
16038;DHT22;8123;50.906;6.172;2022-11-11T18:51:03;8.00;99.90
16038;DHT22;8123;50.906;6.172;2022-11-11T18:53:31;7.90;99.90
16038;DHT22;8123;50.906;6.172;2022-11-11T18:56:02;7.90;99.90
16038;DHT22;8123;50.906;6.172;2022-11-11T18:58:30;7.90;99.90
16038;DHT22;8123;50.906;6.172;2022-11-11T19:01:13;7.90;99.90
16038;DHT22;8123;50.906;6.172;2022-11-11T19:03:46;7.80;99.90
16038;DHT22;8123;50.906;6.172;2022-11-11T19:06:13;7.80;99.90
16038;DHT22;8123;50.906;6.172;2022-11-11T19:08:39;7.80;99.90
16038;DHT22;8123;50.906;6.172;2022-11-11T19:11:06;7.90;99.90
16038;DHT22;8123;50.906;6.172;2022-11-11T19:13:33;7.80;99.90
16038;DHT22;8123;50.906;6.172;2022-11-11T19:16:08;7.80;99.90